sensor_id;sensor_type;location;lat;lon;timestamp;P1;durP1;ratioP1;P2;durP2;ratioP2
49392;SDS011;35268;42.642;23.308;2023-04-09T00:03:32;27.33;;;16.40;;
49392;SDS011;35268;42.642;23.308;2023-04-09T00:05:58;28.75;;;17.08;;
49392;SDS011;35268;42.642;23.308;2023-04-09T00:08:24;31.40;;;16.75;;
49392;SDS011;35268;42.642;23.308;2023-04-09T00:10:50;24.85;;;16.00;;
49392;SDS011;35268;42.642;23.308;2023-04-09T00:13:16;28.63;;;16.90;;
49392;SDS011;35268;42.642;23.308;2023-04-09T00:15:42;26.02;;;16.38;;
49392;SDS011;35268;42.642;23.308;2023-04-09T00:18:08;26.15;;;15.45;;
49392;SDS011;35268;42.642;23.308;2023-04-09T00:20:34;30.42;;;15.52;;
49392;SDS011;35268;42.642;23.308;2023-04-09T00:22:59;28.92;;;16.38;;
49392;SDS011;35268;42.642;23.308;2023-04-09T00:25:25;25.42;;;15.90;;
49392;SDS011;35268;42.642;23.308;2023-04-09T00:27:50;27.50;;;16.65;;
49392;SDS011;35268;42.642;23.308;2023-04-09T00:30:16;28.98;;;15.23;;
49392;SDS011;35268;42.642;23.308;2023-04-09T00:32:41;23.13;;;14.60;;
49392;SDS011;35268;42.642;23.308;2023-04-09T00:35:07;28.90;;;15.13;;
49392;SDS011;35268;42.642;23.308;2023-04-09T00:37:33;26.63;;;14.38;;
49392;SDS011;35268;42.642;23.308;2023-04-09T00:39:59;26.10;;;15.57;;
49392;SDS011;35268;42.642;23.308;2023-04-09T00:42:24;24.08;;;15.23;;
49392;SDS011;35268;42.642;23.308;2023-04-09T00:44:51;25.05;;;14.70;;
49392;SDS011;35268;42.642;23.308;2023-04-09T00:47:16;24.25;;;14.10;;
49392;SDS011;35268;42.642;23.308;2023-04-09T00:49:42;21.63;;;13.70;;
49392;SDS011;35268;42.642;23.308;2023-04-09T00:52:08;29.45;;;15.20;;
49392;SDS011;35268;42.642;23.308;2023-04-09T00:54:34;23.05;;;14.48;;
49392;SDS011;35268;42.642;23.308;2023-04-09T00:57:00;24.15;;;14.95;;
49392;SDS011;35268;42.642;23.308;2023-04-09T00:59:26;23.58;;;14.63;;
49392;SDS011;35268;42.642;23.308;2023-04-09T01:01:51;25.85;;;14.73;;
49392;SDS011;35268;42.642;23.308;2023-04-09T01:04:16;25.35;;;15.48;;
49392;SDS011;35268;42.642;23.308;2023-04-09T01:06:54;27.23;;;15.73;;
49392;SDS011;35268;42.642;23.308;2023-04-09T01:09:41;28.30;;;14.15;;
49392;SDS011;35268;42.642;23.308;2023-04-09T01:14:53;28.10;;;15.80;;
49392;SDS011;35268;42.642;23.308;2023-04-09T01:17:34;27.33;;;15.48;;
49392;SDS011;35268;42.642;23.308;2023-04-09T01:20:14;27.30;;;16.48;;
49392;SDS011;35268;42.642;23.308;2023-04-09T01:30:42;24.83;;;15.75;;
49392;SDS011;35268;42.642;23.308;2023-04-09T01:33:12;28.23;;;14.80;;
49392;SDS011;35268;42.642;23.308;2023-04-09T01:35:40;24.15;;;15.20;;
49392;SDS011;35268;42.642;23.308;2023-04-09T01:38:08;25.05;;;15.48;;
49392;SDS011;35268;42.642;23.308;2023-04-09T01:40:34;26.83;;;16.15;;
49392;SDS011;35268;42.642;23.308;2023-04-09T01:43:01;25.42;;;14.77;;
49392;SDS011;35268;42.642;23.308;2023-04-09T01:45:27;26.08;;;15.48;;
49392;SDS011;35268;42.642;23.308;2023-04-09T01:47:52;27.85;;;15.73;;
49392;SDS011;35268;42.642;23.308;2023-04-09T01:50:19;22.70;;;14.77;;
49392;SDS011;35268;42.642;23.308;2023-04-09T01:52:45;23.83;;;15.35;;
49392;SDS011;35268;42.642;23.308;2023-04-09T01:55:11;24.35;;;14.77;;
49392;SDS011;35268;42.642;23.308;2023-04-09T01:57:36;25.13;;;14.40;;
49392;SDS011;35268;42.642;23.308;2023-04-09T02:00:02;24.88;;;14.65;;
49392;SDS011;35268;42.642;23.308;2023-04-09T02:02:36;25.23;;;14.93;;
49392;SDS011;35268;42.642;23.308;2023-04-09T02:05:10;25.50;;;15.27;;
49392;SDS011;35268;42.642;23.308;2023-04-09T02:07:41;23.00;;;14.00;;
49392;SDS011;35268;42.642;23.308;2023-04-09T02:10:10;22.75;;;13.80;;
49392;SDS011;35268;42.642;23.308;2023-04-09T02:12:37;26.00;;;14.82;;
49392;SDS011;35268;42.642;23.308;2023-04-09T02:15:07;25.23;;;14.18;;
49392;SDS011;35268;42.642;23.308;2023-04-09T02:17:33;24.60;;;15.20;;
49392;SDS011;35268;42.642;23.308;2023-04-09T02:19:59;23.52;;;14.57;;
49392;SDS011;35268;42.642;23.308;2023-04-09T02:22:24;27.73;;;16.63;;
49392;SDS011;35268;42.642;23.308;2023-04-09T02:24:50;28.33;;;16.85;;
49392;SDS011;35268;42.642;23.308;2023-04-09T02:27:15;26.20;;;16.33;;
49392;SDS011;35268;42.642;23.308;2023-04-09T02:29:41;32.85;;;18.33;;
49392;SDS011;35268;42.642;23.308;2023-04-09T02:32:07;31.48;;;17.98;;
49392;SDS011;35268;42.642;23.308;2023-04-09T02:34:32;31.58;;;18.05;;
49392;SDS011;35268;42.642;23.308;2023-04-09T02:36:58;30.38;;;18.33;;
49392;SDS011;35268;42.642;23.308;2023-04-09T02:39:23;27.23;;;17.15;;
49392;SDS011;35268;42.642;23.308;2023-04-09T02:41:48;28.05;;;17.92;;
49392;SDS011;35268;42.642;23.308;2023-04-09T02:44:14;35.20;;;17.77;;
49392;SDS011;35268;42.642;23.308;2023-04-09T02:46:40;29.05;;;16.17;;
49392;SDS011;35268;42.642;23.308;2023-04-09T02:49:06;24.30;;;15.38;;
49392;SDS011;35268;42.642;23.308;2023-04-09T02:51:33;26.45;;;14.60;;
49392;SDS011;35268;42.642;23.308;2023-04-09T02:54:00;20.38;;;11.93;;
49392;SDS011;35268;42.642;23.308;2023-04-09T02:56:25;22.95;;;13.00;;
49392;SDS011;35268;42.642;23.308;2023-04-09T02:58:51;20.45;;;12.75;;
49392;SDS011;35268;42.642;23.308;2023-04-09T03:01:18;24.42;;;14.20;;
49392;SDS011;35268;42.642;23.308;2023-04-09T03:03:44;24.33;;;14.38;;
49392;SDS011;35268;42.642;23.308;2023-04-09T03:06:10;21.20;;;13.98;;
49392;SDS011;35268;42.642;23.308;2023-04-09T03:08:35;26.45;;;14.82;;
49392;SDS011;35268;42.642;23.308;2023-04-09T03:11:00;19.92;;;13.10;;
49392;SDS011;35268;42.642;23.308;2023-04-09T03:13:26;23.13;;;12.57;;
49392;SDS011;35268;42.642;23.308;2023-04-09T03:15:52;20.75;;;12.80;;
49392;SDS011;35268;42.642;23.308;2023-04-09T03:18:18;20.20;;;12.57;;
49392;SDS011;35268;42.642;23.308;2023-04-09T03:20:43;22.67;;;14.35;;
49392;SDS011;35268;42.642;23.308;2023-04-09T03:23:09;16.98;;;11.05;;
49392;SDS011;35268;42.642;23.308;2023-04-09T03:25:35;21.13;;;11.75;;
49392;SDS011;35268;42.642;23.308;2023-04-09T03:28:01;22.20;;;13.55;;
49392;SDS011;35268;42.642;23.308;2023-04-09T03:30:27;21.65;;;13.27;;
49392;SDS011;35268;42.642;23.308;2023-04-09T03:32:52;24.15;;;14.40;;
49392;SDS011;35268;42.642;23.308;2023-04-09T03:35:18;23.42;;;12.82;;
49392;SDS011;35268;42.642;23.308;2023-04-09T03:37:43;23.83;;;13.80;;
49392;SDS011;35268;42.642;23.308;2023-04-09T03:40:09;27.20;;;12.90;;
49392;SDS011;35268;42.642;23.308;2023-04-09T03:42:35;23.25;;;13.10;;
49392;SDS011;35268;42.642;23.308;2023-04-09T03:45:01;22.52;;;12.55;;
49392;SDS011;35268;42.642;23.308;2023-04-09T03:47:27;23.30;;;13.73;;
49392;SDS011;35268;42.642;23.308;2023-04-09T03:49:53;22.15;;;13.63;;
49392;SDS011;35268;42.642;23.308;2023-04-09T03:52:18;23.45;;;14.32;;
49392;SDS011;35268;42.642;23.308;2023-04-09T03:54:44;22.13;;;13.75;;
49392;SDS011;35268;42.642;23.308;2023-04-09T03:57:09;24.00;;;13.88;;
49392;SDS011;35268;42.642;23.308;2023-04-09T03:59:35;19.10;;;12.48;;
49392;SDS011;35268;42.642;23.308;2023-04-09T04:02:00;21.33;;;13.43;;
49392;SDS011;35268;42.642;23.308;2023-04-09T04:04:26;23.75;;;13.40;;
49392;SDS011;35268;42.642;23.308;2023-04-09T04:06:51;21.77;;;11.93;;
49392;SDS011;35268;42.642;23.308;2023-04-09T04:09:17;21.35;;;12.50;;
49392;SDS011;35268;42.642;23.308;2023-04-09T04:11:42;22.10;;;12.82;;
49392;SDS011;35268;42.642;23.308;2023-04-09T04:14:07;21.08;;;12.35;;
49392;SDS011;35268;42.642;23.308;2023-04-09T04:16:33;20.10;;;12.02;;
49392;SDS011;35268;42.642;23.308;2023-04-09T04:18:58;22.88;;;13.20;;
49392;SDS011;35268;42.642;23.308;2023-04-09T04:21:24;22.23;;;12.88;;
49392;SDS011;35268;42.642;23.308;2023-04-09T04:23:49;22.63;;;13.98;;
49392;SDS011;35268;42.642;23.308;2023-04-09T04:26:15;25.10;;;13.35;;
49392;SDS011;35268;42.642;23.308;2023-04-09T04:28:40;29.08;;;15.10;;
49392;SDS011;35268;42.642;23.308;2023-04-09T04:31:06;21.63;;;13.23;;
49392;SDS011;35268;42.642;23.308;2023-04-09T04:33:35;30.35;;;14.13;;
49392;SDS011;35268;42.642;23.308;2023-04-09T04:36:08;29.10;;;15.52;;
49392;SDS011;35268;42.642;23.308;2023-04-09T04:38:36;29.38;;;16.80;;
49392;SDS011;35268;42.642;23.308;2023-04-09T04:41:02;30.15;;;16.02;;
49392;SDS011;35268;42.642;23.308;2023-04-09T04:43:28;27.50;;;16.27;;
49392;SDS011;35268;42.642;23.308;2023-04-09T04:45:54;27.48;;;16.27;;
49392;SDS011;35268;42.642;23.308;2023-04-09T04:48:20;25.73;;;15.07;;
49392;SDS011;35268;42.642;23.308;2023-04-09T04:50:46;26.52;;;15.38;;
49392;SDS011;35268;42.642;23.308;2023-04-09T04:53:11;26.13;;;15.52;;
49392;SDS011;35268;42.642;23.308;2023-04-09T04:55:37;28.30;;;15.35;;
49392;SDS011;35268;42.642;23.308;2023-04-09T04:58:05;27.50;;;15.48;;
49392;SDS011;35268;42.642;23.308;2023-04-09T05:00:31;29.40;;;15.32;;
49392;SDS011;35268;42.642;23.308;2023-04-09T05:02:56;31.50;;;16.45;;
49392;SDS011;35268;42.642;23.308;2023-04-09T05:05:22;27.05;;;16.38;;
49392;SDS011;35268;42.642;23.308;2023-04-09T05:07:47;26.10;;;16.00;;
49392;SDS011;35268;42.642;23.308;2023-04-09T05:10:13;23.95;;;15.10;;
49392;SDS011;35268;42.642;23.308;2023-04-09T05:12:38;24.10;;;14.95;;
49392;SDS011;35268;42.642;23.308;2023-04-09T05:15:04;35.05;;;16.25;;
49392;SDS011;35268;42.642;23.308;2023-04-09T05:17:30;28.98;;;16.70;;
49392;SDS011;35268;42.642;23.308;2023-04-09T05:19:55;30.90;;;17.70;;
49392;SDS011;35268;42.642;23.308;2023-04-09T05:22:21;28.05;;;17.17;;
49392;SDS011;35268;42.642;23.308;2023-04-09T05:24:47;32.67;;;19.75;;
49392;SDS011;35268;42.642;23.308;2023-04-09T05:27:13;30.92;;;17.42;;
49392;SDS011;35268;42.642;23.308;2023-04-09T05:29:38;31.23;;;18.15;;
49392;SDS011;35268;42.642;23.308;2023-04-09T05:32:03;31.85;;;16.92;;
49392;SDS011;35268;42.642;23.308;2023-04-09T05:34:29;35.92;;;17.73;;
49392;SDS011;35268;42.642;23.308;2023-04-09T05:36:55;40.40;;;18.20;;
49392;SDS011;35268;42.642;23.308;2023-04-09T05:39:20;28.60;;;16.52;;
49392;SDS011;35268;42.642;23.308;2023-04-09T05:41:46;35.13;;;18.52;;
49392;SDS011;35268;42.642;23.308;2023-04-09T05:44:11;33.20;;;18.52;;
49392;SDS011;35268;42.642;23.308;2023-04-09T05:46:37;34.80;;;17.90;;
49392;SDS011;35268;42.642;23.308;2023-04-09T05:49:02;31.73;;;16.33;;
49392;SDS011;35268;42.642;23.308;2023-04-09T05:51:28;34.85;;;17.63;;
49392;SDS011;35268;42.642;23.308;2023-04-09T05:53:53;34.95;;;17.45;;
49392;SDS011;35268;42.642;23.308;2023-04-09T05:56:19;30.77;;;17.38;;
49392;SDS011;35268;42.642;23.308;2023-04-09T05:58:46;27.33;;;15.80;;
49392;SDS011;35268;42.642;23.308;2023-04-09T06:01:12;28.92;;;16.02;;
49392;SDS011;35268;42.642;23.308;2023-04-09T06:03:37;25.98;;;14.88;;
49392;SDS011;35268;42.642;23.308;2023-04-09T06:06:03;25.80;;;14.18;;
49392;SDS011;35268;42.642;23.308;2023-04-09T06:08:29;29.65;;;16.80;;
49392;SDS011;35268;42.642;23.308;2023-04-09T06:10:54;28.42;;;16.95;;
49392;SDS011;35268;42.642;23.308;2023-04-09T06:13:19;26.85;;;15.25;;
49392;SDS011;35268;42.642;23.308;2023-04-09T06:15:45;26.42;;;15.45;;
49392;SDS011;35268;42.642;23.308;2023-04-09T06:18:10;30.88;;;15.13;;
49392;SDS011;35268;42.642;23.308;2023-04-09T06:20:36;25.25;;;13.50;;
49392;SDS011;35268;42.642;23.308;2023-04-09T06:23:03;23.85;;;14.32;;
49392;SDS011;35268;42.642;23.308;2023-04-09T06:25:29;28.25;;;14.70;;
49392;SDS011;35268;42.642;23.308;2023-04-09T06:27:55;22.63;;;13.05;;
49392;SDS011;35268;42.642;23.308;2023-04-09T06:30:21;30.02;;;12.95;;
49392;SDS011;35268;42.642;23.308;2023-04-09T06:32:47;23.83;;;12.80;;
49392;SDS011;35268;42.642;23.308;2023-04-09T06:35:13;21.80;;;12.50;;
49392;SDS011;35268;42.642;23.308;2023-04-09T06:37:39;25.83;;;13.00;;
49392;SDS011;35268;42.642;23.308;2023-04-09T06:40:05;20.30;;;12.90;;
49392;SDS011;35268;42.642;23.308;2023-04-09T06:42:31;22.60;;;12.95;;
49392;SDS011;35268;42.642;23.308;2023-04-09T06:44:56;19.27;;;11.60;;
49392;SDS011;35268;42.642;23.308;2023-04-09T06:47:22;20.00;;;12.45;;
49392;SDS011;35268;42.642;23.308;2023-04-09T06:49:47;27.63;;;12.90;;
49392;SDS011;35268;42.642;23.308;2023-04-09T06:52:13;21.65;;;12.80;;
49392;SDS011;35268;42.642;23.308;2023-04-09T06:54:38;23.15;;;13.50;;
49392;SDS011;35268;42.642;23.308;2023-04-09T06:57:05;23.85;;;11.70;;
49392;SDS011;35268;42.642;23.308;2023-04-09T06:59:31;19.95;;;11.60;;
49392;SDS011;35268;42.642;23.308;2023-04-09T07:01:57;17.85;;;10.90;;
49392;SDS011;35268;42.642;23.308;2023-04-09T07:04:23;21.17;;;12.93;;
49392;SDS011;35268;42.642;23.308;2023-04-09T07:06:49;17.58;;;10.80;;
49392;SDS011;35268;42.642;23.308;2023-04-09T07:09:16;17.13;;;10.43;;
49392;SDS011;35268;42.642;23.308;2023-04-09T07:11:42;15.98;;;9.88;;
49392;SDS011;35268;42.642;23.308;2023-04-09T07:14:07;17.33;;;10.20;;
49392;SDS011;35268;42.642;23.308;2023-04-09T07:16:33;20.52;;;11.25;;
49392;SDS011;35268;42.642;23.308;2023-04-09T07:18:58;15.60;;;9.52;;
49392;SDS011;35268;42.642;23.308;2023-04-09T07:21:24;14.57;;;9.23;;
49392;SDS011;35268;42.642;23.308;2023-04-09T07:23:50;16.02;;;9.02;;
49392;SDS011;35268;42.642;23.308;2023-04-09T07:26:16;15.60;;;8.77;;
49392;SDS011;35268;42.642;23.308;2023-04-09T07:28:41;13.88;;;8.38;;
49392;SDS011;35268;42.642;23.308;2023-04-09T07:31:06;13.05;;;8.20;;
49392;SDS011;35268;42.642;23.308;2023-04-09T07:33:32;14.38;;;8.80;;
49392;SDS011;35268;42.642;23.308;2023-04-09T07:35:58;14.45;;;8.25;;
49392;SDS011;35268;42.642;23.308;2023-04-09T07:38:23;13.80;;;8.48;;
49392;SDS011;35268;42.642;23.308;2023-04-09T07:40:49;15.60;;;9.23;;
49392;SDS011;35268;42.642;23.308;2023-04-09T07:43:14;17.08;;;8.35;;
49392;SDS011;35268;42.642;23.308;2023-04-09T07:45:40;16.23;;;9.68;;
49392;SDS011;35268;42.642;23.308;2023-04-09T07:48:06;14.25;;;8.95;;
49392;SDS011;35268;42.642;23.308;2023-04-09T07:50:33;14.38;;;8.23;;
49392;SDS011;35268;42.642;23.308;2023-04-09T07:52:58;11.43;;;7.82;;
49392;SDS011;35268;42.642;23.308;2023-04-09T07:55:24;17.10;;;9.68;;
49392;SDS011;35268;42.642;23.308;2023-04-09T07:57:49;13.23;;;8.75;;
49392;SDS011;35268;42.642;23.308;2023-04-09T08:00:15;12.70;;;9.02;;
49392;SDS011;35268;42.642;23.308;2023-04-09T08:02:41;14.73;;;9.00;;
49392;SDS011;35268;42.642;23.308;2023-04-09T08:05:07;13.40;;;9.35;;
49392;SDS011;35268;42.642;23.308;2023-04-09T08:07:33;13.63;;;8.75;;
49392;SDS011;35268;42.642;23.308;2023-04-09T08:09:58;12.82;;;8.77;;
49392;SDS011;35268;42.642;23.308;2023-04-09T08:12:24;13.20;;;8.48;;
49392;SDS011;35268;42.642;23.308;2023-04-09T08:14:49;14.32;;;8.45;;
49392;SDS011;35268;42.642;23.308;2023-04-09T08:17:15;12.00;;;7.53;;
49392;SDS011;35268;42.642;23.308;2023-04-09T08:19:40;14.70;;;9.40;;
49392;SDS011;35268;42.642;23.308;2023-04-09T08:22:05;13.40;;;7.85;;
49392;SDS011;35268;42.642;23.308;2023-04-09T08:24:31;12.32;;;8.18;;
49392;SDS011;35268;42.642;23.308;2023-04-09T08:26:56;14.90;;;9.38;;
49392;SDS011;35268;42.642;23.308;2023-04-09T08:29:22;14.27;;;9.00;;
49392;SDS011;35268;42.642;23.308;2023-04-09T08:31:47;14.15;;;9.00;;
49392;SDS011;35268;42.642;23.308;2023-04-09T08:34:13;13.80;;;9.68;;
49392;SDS011;35268;42.642;23.308;2023-04-09T08:36:40;14.48;;;8.48;;
49392;SDS011;35268;42.642;23.308;2023-04-09T08:39:09;16.13;;;9.82;;
49392;SDS011;35268;42.642;23.308;2023-04-09T08:41:34;17.95;;;9.10;;
49392;SDS011;35268;42.642;23.308;2023-04-09T08:44:05;15.73;;;8.55;;
49392;SDS011;35268;42.642;23.308;2023-04-09T08:46:31;17.08;;;9.43;;
49392;SDS011;35268;42.642;23.308;2023-04-09T08:48:56;15.85;;;8.77;;
49392;SDS011;35268;42.642;23.308;2023-04-09T08:51:22;18.33;;;9.40;;
49392;SDS011;35268;42.642;23.308;2023-04-09T08:53:50;19.73;;;9.30;;
49392;SDS011;35268;42.642;23.308;2023-04-09T08:56:19;14.30;;;9.75;;
49392;SDS011;35268;42.642;23.308;2023-04-09T08:58:48;12.13;;;8.95;;
49392;SDS011;35268;42.642;23.308;2023-04-09T09:01:20;15.88;;;9.82;;
49392;SDS011;35268;42.642;23.308;2023-04-09T09:03:55;18.58;;;8.98;;
49392;SDS011;35268;42.642;23.308;2023-04-09T09:06:21;15.73;;;9.25;;
49392;SDS011;35268;42.642;23.308;2023-04-09T09:09:01;19.05;;;10.52;;
49392;SDS011;35268;42.642;23.308;2023-04-09T09:11:29;17.52;;;9.75;;
49392;SDS011;35268;42.642;23.308;2023-04-09T09:14:13;15.73;;;9.27;;
49392;SDS011;35268;42.642;23.308;2023-04-09T09:19:29;15.48;;;9.88;;
49392;SDS011;35268;42.642;23.308;2023-04-09T09:21:58;13.73;;;8.63;;
49392;SDS011;35268;42.642;23.308;2023-04-09T09:24:25;17.38;;;10.23;;
49392;SDS011;35268;42.642;23.308;2023-04-09T09:26:51;14.10;;;9.20;;
49392;SDS011;35268;42.642;23.308;2023-04-09T09:29:18;12.25;;;7.43;;
49392;SDS011;35268;42.642;23.308;2023-04-09T09:31:50;14.48;;;8.82;;
49392;SDS011;35268;42.642;23.308;2023-04-09T09:34:17;12.95;;;8.25;;
49392;SDS011;35268;42.642;23.308;2023-04-09T09:36:44;12.38;;;8.63;;
49392;SDS011;35268;42.642;23.308;2023-04-09T09:39:10;14.20;;;7.80;;
49392;SDS011;35268;42.642;23.308;2023-04-09T09:41:37;12.90;;;8.88;;
49392;SDS011;35268;42.642;23.308;2023-04-09T09:44:03;14.80;;;8.50;;
49392;SDS011;35268;42.642;23.308;2023-04-09T09:46:35;12.48;;;8.15;;
49392;SDS011;35268;42.642;23.308;2023-04-09T09:49:02;11.40;;;8.13;;
49392;SDS011;35268;42.642;23.308;2023-04-09T09:51:28;12.40;;;8.10;;
49392;SDS011;35268;42.642;23.308;2023-04-09T09:53:56;16.75;;;9.30;;
49392;SDS011;35268;42.642;23.308;2023-04-09T09:56:43;13.73;;;8.27;;
49392;SDS011;35268;42.642;23.308;2023-04-09T09:59:14;15.63;;;8.65;;
49392;SDS011;35268;42.642;23.308;2023-04-09T10:01:44;12.50;;;7.88;;
49392;SDS011;35268;42.642;23.308;2023-04-09T10:04:12;13.60;;;8.20;;
49392;SDS011;35268;42.642;23.308;2023-04-09T10:06:41;11.48;;;7.47;;
49392;SDS011;35268;42.642;23.308;2023-04-09T10:09:08;10.77;;;8.15;;
49392;SDS011;35268;42.642;23.308;2023-04-09T10:11:35;10.05;;;6.68;;
49392;SDS011;35268;42.642;23.308;2023-04-09T10:14:01;10.45;;;6.68;;
49392;SDS011;35268;42.642;23.308;2023-04-09T10:16:29;11.85;;;7.68;;
49392;SDS011;35268;42.642;23.308;2023-04-09T10:18:55;10.05;;;7.07;;
49392;SDS011;35268;42.642;23.308;2023-04-09T10:21:27;9.43;;;7.00;;
49392;SDS011;35268;42.642;23.308;2023-04-09T10:23:54;13.90;;;8.25;;
49392;SDS011;35268;42.642;23.308;2023-04-09T10:26:23;10.35;;;7.82;;
49392;SDS011;35268;42.642;23.308;2023-04-09T10:29:13;11.05;;;7.07;;
49392;SDS011;35268;42.642;23.308;2023-04-09T10:31:50;8.75;;;5.85;;
49392;SDS011;35268;42.642;23.308;2023-04-09T10:34:22;9.18;;;6.43;;
49392;SDS011;35268;42.642;23.308;2023-04-09T10:36:52;8.80;;;6.57;;
49392;SDS011;35268;42.642;23.308;2023-04-09T10:39:24;8.35;;;5.40;;
49392;SDS011;35268;42.642;23.308;2023-04-09T10:41:51;9.55;;;6.72;;
49392;SDS011;35268;42.642;23.308;2023-04-09T10:44:18;9.48;;;5.97;;
49392;SDS011;35268;42.642;23.308;2023-04-09T10:46:44;9.35;;;5.75;;
49392;SDS011;35268;42.642;23.308;2023-04-09T10:51:37;8.05;;;5.68;;
49392;SDS011;35268;42.642;23.308;2023-04-09T10:59:36;8.88;;;6.03;;
49392;SDS011;35268;42.642;23.308;2023-04-09T11:02:06;8.00;;;5.15;;
49392;SDS011;35268;42.642;23.308;2023-04-09T11:07:35;8.38;;;5.72;;
49392;SDS011;35268;42.642;23.308;2023-04-09T11:10:06;7.15;;;5.75;;
49392;SDS011;35268;42.642;23.308;2023-04-09T11:12:32;7.25;;;5.13;;
49392;SDS011;35268;42.642;23.308;2023-04-09T11:14:58;7.13;;;4.68;;
49392;SDS011;35268;42.642;23.308;2023-04-09T11:17:23;9.10;;;5.43;;
49392;SDS011;35268;42.642;23.308;2023-04-09T11:19:49;9.68;;;5.30;;
49392;SDS011;35268;42.642;23.308;2023-04-09T11:22:14;7.18;;;5.07;;
49392;SDS011;35268;42.642;23.308;2023-04-09T11:24:44;9.52;;;5.97;;
49392;SDS011;35268;42.642;23.308;2023-04-09T11:27:11;10.65;;;5.63;;
49392;SDS011;35268;42.642;23.308;2023-04-09T11:29:36;7.93;;;4.93;;
49392;SDS011;35268;42.642;23.308;2023-04-09T11:32:02;7.00;;;5.25;;
49392;SDS011;35268;42.642;23.308;2023-04-09T11:34:31;7.63;;;4.43;;
49392;SDS011;35268;42.642;23.308;2023-04-09T11:36:57;7.13;;;5.00;;
49392;SDS011;35268;42.642;23.308;2023-04-09T11:39:24;7.07;;;5.28;;
49392;SDS011;35268;42.642;23.308;2023-04-09T11:41:50;5.95;;;4.32;;
49392;SDS011;35268;42.642;23.308;2023-04-09T11:44:16;9.82;;;5.40;;
49392;SDS011;35268;42.642;23.308;2023-04-09T11:46:41;7.18;;;5.07;;
49392;SDS011;35268;42.642;23.308;2023-04-09T11:49:08;7.72;;;5.88;;
49392;SDS011;35268;42.642;23.308;2023-04-09T11:51:33;10.10;;;5.55;;
49392;SDS011;35268;42.642;23.308;2023-04-09T11:54:05;8.90;;;5.68;;
49392;SDS011;35268;42.642;23.308;2023-04-09T11:58:59;12.02;;;7.28;;
49392;SDS011;35268;42.642;23.308;2023-04-09T12:01:29;10.18;;;6.50;;
49392;SDS011;35268;42.642;23.308;2023-04-09T12:03:56;10.40;;;6.97;;
49392;SDS011;35268;42.642;23.308;2023-04-09T12:06:23;11.88;;;6.90;;
49392;SDS011;35268;42.642;23.308;2023-04-09T12:08:55;10.48;;;6.22;;
49392;SDS011;35268;42.642;23.308;2023-04-09T12:11:28;12.93;;;6.78;;
49392;SDS011;35268;42.642;23.308;2023-04-09T12:13:59;15.15;;;6.15;;
49392;SDS011;35268;42.642;23.308;2023-04-09T12:19:04;11.02;;;6.43;;
49392;SDS011;35268;42.642;23.308;2023-04-09T12:21:46;10.15;;;5.40;;
49392;SDS011;35268;42.642;23.308;2023-04-09T12:24:12;10.97;;;5.57;;
49392;SDS011;35268;42.642;23.308;2023-04-09T12:26:38;10.65;;;7.03;;
49392;SDS011;35268;42.642;23.308;2023-04-09T12:29:03;7.82;;;5.30;;
49392;SDS011;35268;42.642;23.308;2023-04-09T12:31:28;11.32;;;6.03;;
49392;SDS011;35268;42.642;23.308;2023-04-09T12:33:54;6.60;;;4.72;;
49392;SDS011;35268;42.642;23.308;2023-04-09T12:36:19;8.18;;;5.55;;
49392;SDS011;35268;42.642;23.308;2023-04-09T12:38:44;7.57;;;4.78;;
49392;SDS011;35268;42.642;23.308;2023-04-09T12:41:10;9.32;;;5.28;;
49392;SDS011;35268;42.642;23.308;2023-04-09T12:43:37;9.15;;;5.18;;
49392;SDS011;35268;42.642;23.308;2023-04-09T12:46:02;6.75;;;4.68;;
49392;SDS011;35268;42.642;23.308;2023-04-09T12:48:28;7.97;;;5.45;;
49392;SDS011;35268;42.642;23.308;2023-04-09T12:50:53;9.05;;;5.25;;
49392;SDS011;35268;42.642;23.308;2023-04-09T12:53:19;6.43;;;4.70;;
49392;SDS011;35268;42.642;23.308;2023-04-09T12:55:45;8.75;;;4.75;;
49392;SDS011;35268;42.642;23.308;2023-04-09T12:58:13;8.55;;;5.13;;
49392;SDS011;35268;42.642;23.308;2023-04-09T13:00:38;7.30;;;4.80;;
49392;SDS011;35268;42.642;23.308;2023-04-09T13:03:03;6.10;;;4.57;;
49392;SDS011;35268;42.642;23.308;2023-04-09T13:05:29;7.30;;;4.28;;
49392;SDS011;35268;42.642;23.308;2023-04-09T13:07:59;8.52;;;4.80;;
49392;SDS011;35268;42.642;23.308;2023-04-09T13:10:25;6.78;;;4.05;;
49392;SDS011;35268;42.642;23.308;2023-04-09T13:12:51;7.97;;;4.80;;
49392;SDS011;35268;42.642;23.308;2023-04-09T13:15:16;8.13;;;5.30;;
49392;SDS011;35268;42.642;23.308;2023-04-09T13:17:41;10.05;;;5.40;;
49392;SDS011;35268;42.642;23.308;2023-04-09T13:20:07;7.18;;;4.47;;
49392;SDS011;35268;42.642;23.308;2023-04-09T13:22:33;7.47;;;5.00;;
49392;SDS011;35268;42.642;23.308;2023-04-09T13:24:58;8.20;;;5.60;;
49392;SDS011;35268;42.642;23.308;2023-04-09T13:27:24;9.20;;;5.70;;
49392;SDS011;35268;42.642;23.308;2023-04-09T13:29:52;9.27;;;5.38;;
49392;SDS011;35268;42.642;23.308;2023-04-09T13:32:17;8.23;;;5.00;;
49392;SDS011;35268;42.642;23.308;2023-04-09T13:34:45;9.07;;;5.65;;
49392;SDS011;35268;42.642;23.308;2023-04-09T13:37:10;7.18;;;4.75;;
49392;SDS011;35268;42.642;23.308;2023-04-09T13:39:35;7.45;;;4.47;;
49392;SDS011;35268;42.642;23.308;2023-04-09T13:42:01;7.38;;;4.90;;
49392;SDS011;35268;42.642;23.308;2023-04-09T13:44:26;7.10;;;4.30;;
49392;SDS011;35268;42.642;23.308;2023-04-09T13:46:54;7.95;;;4.78;;
49392;SDS011;35268;42.642;23.308;2023-04-09T13:49:20;7.28;;;5.18;;
49392;SDS011;35268;42.642;23.308;2023-04-09T13:51:45;9.20;;;5.25;;
49392;SDS011;35268;42.642;23.308;2023-04-09T13:54:12;7.32;;;5.03;;
49392;SDS011;35268;42.642;23.308;2023-04-09T13:56:38;9.98;;;5.22;;
49392;SDS011;35268;42.642;23.308;2023-04-09T13:59:03;7.35;;;4.97;;
49392;SDS011;35268;42.642;23.308;2023-04-09T14:01:30;7.88;;;4.85;;
49392;SDS011;35268;42.642;23.308;2023-04-09T14:03:55;9.13;;;4.82;;
49392;SDS011;35268;42.642;23.308;2023-04-09T14:06:21;9.43;;;5.05;;
49392;SDS011;35268;42.642;23.308;2023-04-09T14:08:46;11.40;;;5.15;;
49392;SDS011;35268;42.642;23.308;2023-04-09T14:11:12;7.53;;;4.35;;
49392;SDS011;35268;42.642;23.308;2023-04-09T14:13:39;8.45;;;4.55;;
49392;SDS011;35268;42.642;23.308;2023-04-09T14:16:05;6.30;;;4.57;;
49392;SDS011;35268;42.642;23.308;2023-04-09T14:18:31;6.30;;;4.63;;
49392;SDS011;35268;42.642;23.308;2023-04-09T14:20:57;7.05;;;4.28;;
49392;SDS011;35268;42.642;23.308;2023-04-09T14:23:24;9.63;;;4.95;;
49392;SDS011;35268;42.642;23.308;2023-04-09T14:25:50;10.10;;;4.30;;
49392;SDS011;35268;42.642;23.308;2023-04-09T14:28:17;6.70;;;4.72;;
49392;SDS011;35268;42.642;23.308;2023-04-09T14:30:42;7.75;;;4.53;;
49392;SDS011;35268;42.642;23.308;2023-04-09T14:33:08;6.90;;;4.40;;
49392;SDS011;35268;42.642;23.308;2023-04-09T14:35:33;8.52;;;5.40;;
49392;SDS011;35268;42.642;23.308;2023-04-09T14:38:01;10.57;;;5.50;;
49392;SDS011;35268;42.642;23.308;2023-04-09T14:40:29;8.70;;;6.25;;
49392;SDS011;35268;42.642;23.308;2023-04-09T14:42:55;7.38;;;4.70;;
49392;SDS011;35268;42.642;23.308;2023-04-09T14:45:21;9.25;;;5.05;;
49392;SDS011;35268;42.642;23.308;2023-04-09T14:47:47;12.90;;;5.90;;